createdAt,value
2019-02-20T00:01:59.207Z,277.20
2019-02-20T00:04:30.402Z,280.57
2019-02-20T00:07:01.195Z,271.75
2019-02-20T00:09:29.743Z,270.67
2019-02-20T00:11:58.456Z,278.58
2019-02-20T00:14:27.065Z,278.00
2019-02-20T00:16:55.827Z,268.57
2019-02-20T00:19:27.177Z,265.20
2019-02-20T00:21:56.367Z,262.40
2019-02-20T00:24:24.906Z,254.05
2019-02-20T00:26:53.481Z,258.73
2019-02-20T00:29:22.045Z,262.98
2019-02-20T00:31:57.019Z,263.27
2019-02-20T00:34:30.713Z,255.95
2019-02-20T00:36:59.328Z,256.55
2019-02-20T00:39:27.887Z,250.15
2019-02-20T00:41:56.539Z,244.35
2019-02-20T00:44:26.675Z,252.18
2019-02-20T00:46:56.924Z,229.15
2019-02-20T00:49:27.062Z,243.37
2019-02-20T00:52:03.246Z,250.40
2019-02-20T00:54:33.503Z,238.80
2019-02-20T00:57:02.008Z,242.55
2019-02-20T00:59:30.718Z,251.12
2019-02-20T01:01:59.610Z,240.45
2019-02-20T01:04:28.170Z,246.32
2019-02-20T01:07:01.160Z,236.85
2019-02-20T01:09:27.305Z,234.25
2019-02-20T01:11:55.799Z,240.52
2019-02-20T01:14:27.564Z,240.22
2019-02-20T01:16:56.567Z,232.77
2019-02-20T01:19:25.143Z,234.27
2019-02-20T01:21:53.748Z,245.93
2019-02-20T01:24:22.749Z,234.47
2019-02-20T01:26:53.157Z,228.47
2019-02-20T01:29:22.020Z,232.20
2019-02-20T01:31:53.323Z,219.68
2019-02-20T01:34:33.629Z,214.65
2019-02-20T01:37:02.162Z,211.15
2019-02-20T01:39:31.127Z,224.80
2019-02-20T01:42:03.349Z,233.60
2019-02-20T01:44:35.095Z,216.93
2019-02-20T01:47:06.515Z,220.20
2019-02-20T01:49:35.047Z,208.78
2019-02-20T01:52:03.785Z,213.32
2019-02-20T01:54:32.279Z,221.30
2019-02-20T01:57:04.793Z,216.78
2019-02-20T01:59:33.527Z,206.78
2019-02-20T02:02:02.082Z,204.13
2019-02-20T02:04:30.769Z,216.50
2019-02-20T02:06:59.573Z,205.10
2019-02-20T02:09:28.139Z,209.45
2019-02-20T02:11:59.594Z,214.82
2019-02-20T02:14:28.280Z,214.40
2019-02-20T02:16:56.897Z,207.83
2019-02-20T02:19:25.517Z,207.40
2019-02-20T02:21:54.757Z,200.35
2019-02-20T02:24:23.431Z,192.98
2019-02-20T02:26:55.191Z,211.52
2019-02-20T02:29:24.119Z,208.50
2019-02-20T02:31:52.917Z,202.70
2019-02-20T02:34:23.844Z,195.00
2019-02-20T02:36:54.241Z,204.82
2019-02-20T02:39:22.925Z,209.83
2019-02-20T02:41:51.611Z,199.47
2019-02-20T02:44:20.347Z,190.20
2019-02-20T02:46:49.192Z,196.60
2019-02-20T02:49:17.764Z,193.52
2019-02-20T02:51:46.386Z,186.07
2019-02-20T02:54:18.148Z,173.25
2019-02-20T02:56:46.696Z,178.18
2019-02-20T02:59:15.216Z,180.03
2019-02-20T03:01:43.951Z,177.35
2019-02-20T03:04:12.546Z,175.65
2019-02-20T03:06:41.339Z,160.35
2019-02-20T03:09:10.096Z,159.35
2019-02-20T03:14:42.767Z,157.35
2019-02-20T03:17:11.249Z,154.45
2019-02-20T03:19:39.786Z,169.90
2019-02-20T03:22:08.265Z,169.13
2019-02-20T03:24:37.078Z,198.85
2019-02-20T03:27:05.839Z,239.90
2019-02-20T03:29:45.666Z,197.50
2019-02-20T03:32:19.307Z,212.15
2019-02-20T03:34:47.890Z,242.80
2019-02-20T03:37:16.602Z,229.30
2019-02-20T03:39:45.180Z,217.77
2019-02-20T03:42:13.794Z,262.88
2019-02-20T03:44:42.376Z,263.45
2019-02-20T03:47:10.972Z,211.62
2019-02-20T03:49:39.569Z,271.00
2019-02-20T03:52:08.212Z,180.05
2019-02-20T03:54:37.300Z,159.82
2019-02-20T03:57:09.321Z,210.95
2019-02-20T03:59:38.039Z,167.35
2019-02-20T04:02:13.386Z,171.10
2019-02-20T04:04:43.210Z,168.02
2019-02-20T04:07:11.863Z,167.90
2019-02-20T04:09:40.418Z,163.43
2019-02-20T04:12:09.039Z,168.37
2019-02-20T04:14:37.732Z,167.87
2019-02-20T04:17:06.338Z,170.65
2019-02-20T04:19:35.158Z,159.43
2019-02-20T04:22:06.967Z,175.38
2019-02-20T04:24:35.580Z,156.25
2019-02-20T04:27:04.292Z,169.13
2019-02-20T04:29:35.519Z,168.45
2019-02-20T04:32:04.289Z,170.22
2019-02-20T04:34:33.073Z,173.07
2019-02-20T04:37:01.622Z,180.30
2019-02-20T04:39:30.353Z,191.00
2019-02-20T04:41:59.040Z,200.62
2019-02-20T04:44:27.613Z,197.37
2019-02-20T04:46:56.224Z,193.60
2019-02-20T04:49:24.718Z,206.97
2019-02-20T04:51:53.311Z,206.15
2019-02-20T04:54:21.919Z,204.28
2019-02-20T04:56:50.593Z,228.12
2019-02-20T04:59:19.114Z,229.05
2019-02-20T05:01:47.610Z,216.88
2019-02-20T05:04:16.174Z,221.72
2019-02-20T05:06:44.759Z,215.03
2019-02-20T05:09:13.277Z,226.05
2019-02-20T05:11:41.829Z,224.73
2019-02-20T05:14:10.382Z,229.55
2019-02-20T05:16:39.009Z,224.77
2019-02-20T05:19:07.536Z,245.75
2019-02-20T05:21:36.113Z,241.85
2019-02-20T05:24:04.855Z,250.72
2019-02-20T05:26:33.395Z,243.33
2019-02-20T05:29:03.149Z,245.17
2019-02-20T05:31:31.683Z,256.65
2019-02-20T05:34:00.301Z,239.88
2019-02-20T05:36:28.800Z,243.50
2019-02-20T05:38:57.289Z,247.60
2019-02-20T05:41:25.811Z,245.80
2019-02-20T05:43:55.652Z,234.35
2019-02-20T05:46:24.099Z,246.15
2019-02-20T05:48:52.606Z,234.95
2019-02-20T05:51:21.138Z,241.40
2019-02-20T05:53:49.651Z,242.82
2019-02-20T05:56:18.314Z,242.70
2019-02-20T05:58:48.046Z,237.00
2019-02-20T06:01:16.498Z,233.68
2019-02-20T06:03:45.285Z,234.80
2019-02-20T06:06:13.887Z,212.82
2019-02-20T06:08:42.544Z,219.77
2019-02-20T06:11:14.975Z,215.65
2019-02-20T06:13:41.319Z,225.43
2019-02-20T06:16:09.819Z,225.30
2019-02-20T06:18:39.953Z,211.90
2019-02-20T06:21:08.551Z,213.93
2019-02-20T06:23:37.055Z,217.75
2019-02-20T06:26:08.527Z,219.72
2019-02-20T06:28:37.076Z,204.63
2019-02-20T06:31:05.653Z,201.37
2019-02-20T06:33:34.200Z,197.90
2019-02-20T06:36:02.935Z,198.40
2019-02-20T06:38:31.477Z,195.72
2019-02-20T06:40:59.999Z,214.17
2019-02-20T06:43:28.595Z,208.85
2019-02-20T06:45:57.170Z,218.57
2019-02-20T06:48:28.278Z,200.45
2019-02-20T06:51:05.702Z,196.47
2019-02-20T06:53:39.916Z,199.05
2019-02-20T06:56:08.669Z,202.70
2019-02-20T06:58:37.175Z,201.90
2019-02-20T07:01:05.696Z,191.30
2019-02-20T07:03:35.959Z,197.98
2019-02-20T07:06:25.922Z,205.35
2019-02-20T07:09:12.452Z,188.90
2019-02-20T07:11:56.179Z,191.73
2019-02-20T07:14:30.932Z,193.40
2019-02-20T07:17:05.429Z,194.35
2019-02-20T07:19:49.247Z,203.02
2019-02-20T07:22:32.463Z,193.80
2019-02-20T07:25:19.354Z,172.40
2019-02-20T07:28:13.613Z,164.05
2019-02-20T07:30:42.117Z,171.87
2019-02-20T07:33:11.487Z,169.68
2019-02-20T07:35:39.982Z,167.47
2019-02-20T07:38:08.628Z,158.63
2019-02-20T07:40:37.175Z,166.70
2019-02-20T07:43:05.772Z,163.65
2019-02-20T07:45:34.511Z,166.90
2019-02-20T07:48:03.091Z,173.70
2019-02-20T07:50:31.636Z,166.62
2019-02-20T07:53:00.197Z,165.73
2019-02-20T07:55:28.954Z,172.35
2019-02-20T07:57:57.519Z,173.50
2019-02-20T08:00:26.014Z,171.13
2019-02-20T08:02:54.535Z,172.07
2019-02-20T08:05:23.056Z,163.25
2019-02-20T08:07:51.653Z,165.32
2019-02-20T08:10:20.294Z,181.35
2019-02-20T08:12:48.929Z,171.77
2019-02-20T08:15:17.683Z,186.05
2019-02-20T08:17:46.269Z,192.28
2019-02-20T08:20:17.029Z,200.55
2019-02-20T08:22:45.171Z,187.10
2019-02-20T08:25:22.236Z,192.22
2019-02-20T08:27:44.216Z,184.85
2019-02-20T08:30:13.940Z,196.20
2019-02-20T08:32:42.607Z,200.72
2019-02-20T08:35:12.350Z,185.60
2019-02-20T08:37:40.875Z,196.45
2019-02-20T08:40:20.439Z,190.25
2019-02-20T08:42:52.707Z,189.52
2019-02-20T08:45:25.084Z,224.70
2019-02-20T08:47:54.171Z,213.72
2019-02-20T08:50:22.765Z,204.95
2019-02-20T08:52:53.885Z,208.32
2019-02-20T08:55:31.560Z,211.50
2019-02-20T08:57:52.694Z,203.12
2019-02-20T09:00:21.257Z,216.80
2019-02-20T09:02:49.739Z,222.20
2019-02-20T09:05:18.331Z,203.27
2019-02-20T09:07:46.814Z,201.88
2019-02-20T09:10:17.190Z,232.47
2019-02-20T09:12:45.703Z,224.65
2019-02-20T09:15:14.221Z,224.95
2019-02-20T09:17:42.749Z,232.03
2019-02-20T09:20:11.948Z,229.82
2019-02-20T09:22:40.505Z,242.85
2019-02-20T09:25:19.540Z,234.70
2019-02-20T09:27:41.756Z,245.52
2019-02-20T09:30:15.009Z,235.70
2019-02-20T09:32:43.489Z,249.45
2019-02-20T09:35:12.040Z,242.03
2019-02-20T09:37:40.524Z,233.90
2019-02-20T09:40:17.040Z,232.60
2019-02-20T09:42:48.095Z,226.07
2019-02-20T09:45:16.625Z,252.20
2019-02-20T09:47:45.229Z,239.08
2019-02-20T09:50:13.746Z,219.18
2019-02-20T09:52:51.701Z,225.72
2019-02-20T09:55:13.697Z,233.13
2019-02-20T09:57:42.235Z,231.05
2019-02-20T10:00:16.845Z,236.57
2019-02-20T10:02:47.209Z,203.60
2019-02-20T10:05:15.606Z,221.70
2019-02-20T10:07:44.423Z,219.82
2019-02-20T10:10:15.960Z,224.82
2019-02-20T10:12:51.855Z,212.42
2019-02-20T10:15:20.701Z,205.00
2019-02-20T10:17:49.300Z,212.53
2019-02-20T10:20:17.875Z,210.28
2019-02-20T10:22:46.340Z,201.70
2019-02-20T10:25:15.591Z,211.22
2019-02-20T10:27:44.178Z,208.45
2019-02-20T10:30:19.947Z,203.58
2019-02-20T10:32:48.534Z,198.57
2019-02-20T10:35:17.040Z,202.93
2019-02-20T10:37:45.608Z,185.88
2019-02-20T10:40:14.186Z,191.22
2019-02-20T10:42:42.692Z,191.80
2019-02-20T10:45:14.371Z,195.65
2019-02-20T10:47:43.047Z,200.43
2019-02-20T10:50:12.658Z,193.93
2019-02-20T10:52:41.228Z,192.65
2019-02-20T10:55:10.183Z,190.18
2019-02-20T10:57:38.829Z,188.32
2019-02-20T11:00:23.540Z,190.35
2019-02-20T11:02:46.728Z,185.82
2019-02-20T11:05:15.233Z,188.20
2019-02-20T11:07:43.755Z,194.15
2019-02-20T11:10:12.324Z,186.25
2019-02-20T11:12:40.850Z,184.13
2019-02-20T11:15:09.600Z,178.72
2019-02-20T11:17:38.214Z,191.53
2019-02-20T11:20:09.580Z,186.10
2019-02-20T11:22:39.187Z,187.25
2019-02-20T11:25:10.287Z,189.45
2019-02-20T11:27:39.590Z,180.15
2019-02-20T11:30:23.670Z,182.22
2019-02-20T11:32:52.185Z,182.25
2019-02-20T11:35:20.679Z,185.20
2019-02-20T11:37:49.194Z,182.82
2019-02-20T11:40:17.727Z,175.85
2019-02-20T11:42:50.042Z,182.07
2019-02-20T11:45:18.552Z,182.57
2019-02-20T11:47:47.059Z,188.32
2019-02-20T11:50:15.561Z,170.20
2019-02-20T11:52:44.075Z,178.50
2019-02-20T11:55:13.983Z,175.90
2019-02-20T11:57:42.476Z,173.20
2019-02-20T12:00:18.596Z,174.70
2019-02-20T12:02:47.107Z,172.62
2019-02-20T12:05:15.593Z,170.55
2019-02-20T12:07:44.179Z,175.57
2019-02-20T12:10:15.477Z,167.22
2019-02-20T12:12:43.991Z,166.22
2019-02-20T12:15:13.692Z,157.67
2019-02-20T12:17:42.294Z,160.10
2019-02-20T12:20:10.947Z,163.30
2019-02-20T12:22:39.441Z,155.20
2019-02-20T12:25:10.215Z,153.97
2019-02-20T12:27:38.739Z,155.03
2019-02-20T12:30:10.511Z,165.65
2019-02-20T12:32:40.133Z,158.90
2019-02-20T12:35:10.700Z,174.68
2019-02-20T12:37:39.233Z,167.47
2019-02-20T12:40:14.361Z,165.57
2019-02-20T12:42:42.872Z,165.82
2019-02-20T12:45:11.386Z,151.93
2019-02-20T12:47:39.910Z,164.00
2019-02-20T12:50:12.837Z,162.18
2019-02-20T12:52:41.657Z,165.93
2019-02-20T12:55:20.380Z,158.57
2019-02-20T13:00:50.790Z,160.97
2019-02-20T13:03:19.338Z,158.87
2019-02-20T13:05:58.910Z,164.32
2019-02-20T13:08:37.580Z,156.57
2019-02-20T13:11:22.447Z,159.10
2019-02-20T13:14:02.909Z,156.32
2019-02-20T13:16:38.858Z,159.18
2019-02-20T13:19:13.814Z,153.02
2019-02-20T13:21:42.571Z,147.25
2019-02-20T13:24:11.257Z,153.10
2019-02-20T13:26:42.038Z,147.02
2019-02-20T13:29:20.556Z,145.87
2019-02-20T13:32:04.691Z,144.22
2019-02-20T13:34:34.375Z,151.25
2019-02-20T13:37:03.113Z,159.25
2019-02-20T13:39:31.819Z,146.93
2019-02-20T13:42:00.463Z,151.85
2019-02-20T13:44:29.008Z,142.75
2019-02-20T13:46:57.870Z,137.32
2019-02-20T13:49:26.382Z,143.75
2019-02-20T13:51:54.954Z,149.30
2019-02-20T13:54:23.441Z,136.82
2019-02-20T13:56:52.546Z,150.42
2019-02-20T13:59:21.075Z,143.57
2019-02-20T14:01:49.769Z,137.55
2019-02-20T14:04:29.354Z,148.60
2019-02-20T14:06:59.695Z,144.02
2019-02-20T14:09:29.662Z,136.68
2019-02-20T14:11:58.169Z,136.97
2019-02-20T14:14:26.699Z,141.68
2019-02-20T14:16:57.401Z,142.43
2019-02-20T14:19:25.883Z,133.30
2019-02-20T14:21:54.407Z,134.43
2019-02-20T14:24:22.903Z,132.18
2019-02-20T14:26:51.419Z,128.65
2019-02-20T14:29:20.024Z,131.43
2019-02-20T14:31:50.663Z,137.10
2019-02-20T14:34:18.851Z,145.07
2019-02-20T14:36:47.766Z,139.52
2019-02-20T14:39:18.026Z,144.35
2019-02-20T14:41:46.992Z,138.28
2019-02-20T14:44:15.619Z,133.57
2019-02-20T14:46:44.278Z,139.65
2019-02-20T14:49:13.289Z,127.12
2019-02-20T14:51:41.847Z,128.02
2019-02-20T14:54:10.419Z,141.12
2019-02-20T14:56:39.106Z,126.18
2019-02-20T14:59:07.943Z,147.53
2019-02-20T15:01:36.633Z,135.50
2019-02-20T15:04:05.275Z,135.48
2019-02-20T15:06:33.911Z,141.85
2019-02-20T15:09:02.469Z,137.72
2019-02-20T15:11:30.994Z,138.35
2019-02-20T15:13:59.599Z,140.10
2019-02-20T15:16:28.404Z,133.20
2019-02-20T15:18:56.941Z,139.68
2019-02-20T15:21:25.786Z,142.75
2019-02-20T15:23:54.467Z,138.75
2019-02-20T15:26:23.029Z,137.77
2019-02-20T15:28:51.646Z,137.52
2019-02-20T15:31:21.394Z,138.95
2019-02-20T15:33:51.643Z,137.82
2019-02-20T15:36:20.291Z,135.22
2019-02-20T15:38:49.010Z,147.20
2019-02-20T15:41:17.632Z,141.00
2019-02-20T15:43:46.305Z,134.37
2019-02-20T15:46:15.025Z,144.80
2019-02-20T15:48:43.649Z,145.22
2019-02-20T15:51:12.268Z,147.87
2019-02-20T15:53:40.969Z,146.98
2019-02-20T15:56:09.619Z,151.22
2019-02-20T15:58:42.637Z,147.43
2019-02-20T16:01:14.501Z,158.80
2019-02-20T16:03:43.086Z,150.97
2019-02-20T16:06:11.593Z,154.15
2019-02-20T16:08:41.768Z,151.18
2019-02-20T16:11:10.359Z,148.17
2019-02-20T16:13:38.973Z,148.35
2019-02-20T16:16:07.494Z,155.72
2019-02-20T16:18:39.048Z,162.95
2019-02-20T16:21:07.559Z,158.70
2019-02-20T16:23:36.074Z,157.37
2019-02-20T16:26:04.739Z,161.82
2019-02-20T16:28:34.039Z,154.55
2019-02-20T16:31:02.961Z,150.85
2019-02-20T16:33:31.484Z,159.43
2019-02-20T16:36:00.150Z,167.65
2019-02-20T16:38:28.658Z,163.00
2019-02-20T16:40:57.685Z,167.07
2019-02-20T16:43:26.237Z,169.75
2019-02-20T16:45:54.844Z,167.25
2019-02-20T16:48:26.360Z,160.85
2019-02-20T16:50:54.936Z,168.47
2019-02-20T16:53:23.444Z,171.87
2019-02-20T16:55:51.993Z,172.13
2019-02-20T16:58:20.633Z,180.45
2019-02-20T17:00:50.313Z,176.63
2019-02-20T17:03:18.808Z,166.18
2019-02-20T17:05:48.607Z,171.20
2019-02-20T17:08:17.375Z,180.85
2019-02-20T17:10:45.861Z,180.25
2019-02-20T17:13:14.924Z,186.28
2019-02-20T17:15:43.487Z,176.05
2019-02-20T17:18:11.996Z,198.57
2019-02-20T17:20:40.615Z,196.98
2019-02-20T17:23:09.182Z,197.62
2019-02-20T17:25:37.673Z,195.07
2019-02-20T17:28:06.271Z,201.70
2019-02-20T17:30:34.776Z,213.50
2019-02-20T17:33:03.282Z,199.35
2019-02-20T17:35:31.789Z,199.42
2019-02-20T17:38:00.281Z,185.82
2019-02-20T17:40:28.883Z,204.72
2019-02-20T17:42:57.370Z,197.45
2019-02-20T17:45:26.454Z,198.55
2019-02-20T17:47:55.011Z,228.12
2019-02-20T17:50:24.936Z,221.57
2019-02-20T17:52:53.458Z,212.95
2019-02-20T17:55:21.989Z,230.65
2019-02-20T17:57:50.539Z,218.60
2019-02-20T18:00:21.092Z,236.85
2019-02-20T18:02:49.581Z,227.93
2019-02-20T18:05:18.111Z,232.03
2019-02-20T18:07:49.689Z,240.12
2019-02-20T18:10:16.751Z,250.75
2019-02-20T18:12:45.260Z,216.02
2019-02-20T18:15:16.168Z,218.25
2019-02-20T18:17:44.697Z,222.10
2019-02-20T18:20:13.198Z,237.85
2019-02-20T18:22:43.625Z,234.67
2019-02-20T18:25:12.469Z,256.95
2019-02-20T18:27:43.832Z,235.10
2019-02-20T18:30:14.696Z,246.00
2019-02-20T18:32:43.222Z,228.55
2019-02-20T18:35:13.210Z,223.30
2019-02-20T18:37:41.751Z,249.55
2019-02-20T18:40:12.166Z,254.87
2019-02-20T18:42:40.694Z,246.15
2019-02-20T18:45:11.884Z,245.80
2019-02-20T18:47:40.418Z,235.60
2019-02-20T18:50:11.369Z,217.60
2019-02-20T18:52:39.943Z,243.97
2019-02-20T18:55:13.353Z,227.55
2019-02-20T18:57:41.850Z,251.32
2019-02-20T19:00:15.782Z,226.75
2019-02-20T19:05:12.348Z,240.68
2019-02-20T19:07:40.916Z,234.30
2019-02-20T19:10:15.207Z,242.87
2019-02-20T19:13:02.153Z,244.37
2019-02-20T19:15:49.374Z,232.40
2019-02-20T19:18:36.180Z,232.07
2019-02-20T19:21:13.955Z,247.02
2019-02-20T19:24:11.461Z,223.87
2019-02-20T19:27:04.374Z,217.70
2019-02-20T19:29:54.384Z,231.02
2019-02-20T19:32:41.303Z,227.43
2019-02-20T19:35:25.201Z,232.80
2019-02-20T19:38:31.802Z,240.50
2019-02-20T19:41:23.223Z,239.10
2019-02-20T19:44:10.025Z,238.92
2019-02-20T19:47:09.214Z,228.25
2019-02-20T19:49:41.105Z,233.05
2019-02-20T19:52:28.041Z,234.40
2019-02-20T19:55:18.230Z,220.65
2019-02-20T19:58:02.080Z,229.97
2019-02-20T20:00:51.935Z,233.17
2019-02-20T20:03:23.743Z,237.95
2019-02-20T20:06:01.745Z,230.22
2019-02-20T20:08:45.526Z,236.57
2019-02-20T20:11:29.396Z,227.97
2019-02-20T20:14:25.740Z,235.32
2019-02-20T20:17:06.314Z,251.55
2019-02-20T20:19:49.917Z,231.47
2019-02-20T20:22:33.739Z,237.42
2019-02-20T20:25:14.607Z,228.22
2019-02-20T20:28:01.469Z,238.92
2019-02-20T20:30:51.546Z,241.95
2019-02-20T20:33:32.252Z,237.82
2019-02-20T20:36:22.032Z,243.90
2019-02-20T20:39:11.938Z,223.90
2019-02-20T20:42:06.202Z,236.55
2019-02-20T20:44:38.005Z,237.23
2019-02-20T20:47:29.404Z,232.70
2019-02-20T20:50:10.080Z,235.13
2019-02-20T20:52:54.038Z,238.07
2019-02-20T20:55:34.903Z,226.22
2019-02-20T20:58:23.401Z,224.15
2019-02-20T21:00:58.168Z,232.90
2019-02-20T21:03:29.354Z,225.32
2019-02-20T21:06:19.171Z,230.92
2019-02-20T21:08:50.971Z,217.70
2019-02-20T21:11:51.085Z,231.28
2019-02-20T21:14:29.084Z,229.13
2019-02-20T21:17:03.870Z,233.00
2019-02-20T21:19:41.829Z,220.82
2019-02-20T21:22:19.803Z,222.20
2019-02-20T21:24:51.688Z,231.28
2019-02-20T21:27:32.494Z,229.70
2019-02-20T21:30:13.636Z,225.13
2019-02-20T21:33:00.574Z,230.95
2019-02-20T21:35:44.340Z,224.05
2019-02-20T21:38:32.667Z,223.40
2019-02-20T21:41:07.277Z,237.35
2019-02-20T21:43:39.030Z,233.60
2019-02-20T21:46:25.921Z,221.32
2019-02-20T21:49:13.015Z,234.27
2019-02-20T21:52:01.502Z,245.42
2019-02-20T21:54:33.251Z,232.70
2019-02-20T21:57:13.681Z,232.47
2019-02-20T22:00:12.757Z,246.93
2019-02-20T22:03:02.686Z,238.07
2019-02-20T22:05:49.313Z,241.15
2019-02-20T22:08:46.935Z,242.70
2019-02-20T22:11:50.629Z,239.20
2019-02-20T22:14:34.365Z,238.28
2019-02-20T22:17:28.345Z,246.10
2019-02-20T22:20:03.085Z,233.28
2019-02-20T22:22:43.897Z,228.98
2019-02-20T22:25:15.647Z,232.60
2019-02-20T22:27:53.530Z,233.55
2019-02-20T22:30:31.395Z,240.05
2019-02-20T22:33:21.436Z,233.65
2019-02-20T22:36:09.692Z,238.43
2019-02-20T22:38:48.408Z,231.68
2019-02-20T22:41:26.476Z,239.08
2019-02-20T22:44:15.125Z,243.57
2019-02-20T22:46:46.949Z,236.32
2019-02-20T22:49:18.708Z,229.63
2019-02-20T22:51:53.137Z,231.00
2019-02-20T22:54:30.999Z,232.60
2019-02-20T22:57:25.563Z,230.25
2019-02-20T23:02:33.652Z,244.90
2019-02-20T23:05:26.328Z,221.72
2019-02-20T23:08:01.306Z,224.52
2019-02-20T23:10:48.357Z,238.12
2019-02-20T23:13:26.049Z,219.10
2019-02-20T23:15:54.531Z,232.75
2019-02-20T23:18:23.013Z,227.55
2019-02-20T23:20:51.542Z,217.50
2019-02-20T23:23:20.034Z,220.52
2019-02-20T23:25:48.516Z,216.48
2019-02-20T23:28:17.024Z,233.02
2019-02-20T23:30:45.514Z,236.85
2019-02-20T23:33:14.003Z,234.35
2019-02-20T23:35:42.668Z,230.40
2019-02-20T23:38:11.215Z,226.20
2019-02-20T23:40:39.692Z,236.03
2019-02-20T23:43:08.168Z,229.38
2019-02-20T23:45:36.670Z,217.10
2019-02-20T23:48:05.156Z,222.25
2019-02-20T23:50:33.659Z,224.62
2019-02-20T23:53:02.162Z,224.58
2019-02-20T23:55:30.694Z,231.20
2019-02-20T23:57:59.212Z,218.00
